Time;durP1;ratioP1;P1;durP2;ratioP2;P2;SDS_P1;SDS_P2;PMS_P1;PMS_P2;Temp;Humidity;BMP_temperature;BMP_pressure;BME280_temperature;BME280_humidity;BME280_pressure;Samples;Min_cycle;Max_cycle;Signal;HPM_P1;HPM_P2
2021/07/22 00:02:22;;;;;;;19.92;11.73;;;14.80;99.90;;;;;;5028589;28;20071;-80
2021/07/22 00:04:47;;;;;;;14.63;11.40;;;14.80;99.90;;;;;;5028130;28;20048;-80
2021/07/22 00:07:13;;;;;;;16.75;10.95;;;14.70;99.90;;;;;;5028322;28;20026;-80
2021/07/22 00:09:39;;;;;;;16.98;11.85;;;14.70;99.90;;;;;;5028234;28;20052;-80
2021/07/22 00:12:07;;;;;;;17.95;11.52;;;14.70;99.90;;;;;;5038747;28;20111;-80
2021/07/22 00:14:33;;;;;;;15.43;10.57;;;14.70;99.90;;;;;;5028025;28;20045;-80
2021/07/22 00:16:58;;;;;;;17.20;11.55;;;14.70;99.90;;;;;;5028098;28;20030;-80
2021/07/22 00:19:24;;;;;;;17.00;11.60;;;14.60;99.90;;;;;;5028267;28;20522;-80
2021/07/22 00:21:49;;;;;;;18.80;10.63;;;14.60;99.90;;;;;;5027793;28;20037;-80
2021/07/22 00:24:15;;;;;;;16.35;11.18;;;14.60;99.90;;;;;;5027967;28;20386;-80
2021/07/22 00:26:40;;;;;;;17.52;11.85;;;14.50;99.90;;;;;;5027427;28;20467;-80
2021/07/22 00:29:06;;;;;;;18.77;11.95;;;14.50;99.90;;;;;;5029115;28;20040;-80
2021/07/22 00:31:31;;;;;;;18.13;11.85;;;14.50;99.90;;;;;;5037443;28;20855;-79
2021/07/22 00:33:57;;;;;;;18.48;11.73;;;14.40;99.90;;;;;;5031727;28;20078;-80
2021/07/22 00:36:23;;;;;;;18.10;11.38;;;14.40;99.90;;;;;;5028036;28;20629;-80
2021/07/22 00:38:49;;;;;;;15.93;11.88;;;14.40;99.90;;;;;;5027844;28;20025;-80
2021/07/22 00:41:15;;;;;;;16.55;11.60;;;14.40;99.90;;;;;;5027938;28;20033;-81
2021/07/22 00:43:41;;;;;;;22.50;12.25;;;14.30;99.90;;;;;;5028549;28;20462;-76
2021/07/22 00:46:10;;;;;;;17.58;11.57;;;14.30;99.90;;;;;;5032469;28;20025;-75
2021/07/22 00:48:36;;;;;;;14.52;10.70;;;14.20;99.90;;;;;;5033212;28;20030;-75
2021/07/22 00:51:02;;;;;;;18.00;12.65;;;14.30;99.90;;;;;;5033184;28;20025;-74
2021/07/22 00:53:27;;;;;;;16.92;11.18;;;14.20;99.90;;;;;;5033775;28;20029;-74
2021/07/22 00:55:53;;;;;;;17.98;12.07;;;14.20;99.90;;;;;;5033763;28;20064;-75
2021/07/22 00:58:18;;;;;;;17.77;11.57;;;14.10;99.90;;;;;;5033620;28;20521;-75
2021/07/22 01:00:44;;;;;;;15.43;10.98;;;14.10;99.90;;;;;;5033299;28;20059;-75
2021/07/22 01:03:10;;;;;;;13.88;9.93;;;14.10;99.90;;;;;;5033639;28;20030;-75
2021/07/22 01:05:36;;;;;;;14.52;10.68;;;14.00;99.90;;;;;;5033768;28;20462;-74
2021/07/22 01:08:03;;;;;;;17.00;10.98;;;14.10;99.90;;;;;;5049588;28;20188;-75
2021/07/22 01:10:29;;;;;;;15.35;11.60;;;14.00;99.90;;;;;;5053195;28;20021;-75
2021/07/22 01:12:55;;;;;;;20.42;12.27;;;14.00;99.90;;;;;;5053939;28;20028;-74
2021/07/22 01:15:20;;;;;;;19.90;11.95;;;14.00;99.90;;;;;;5036758;28;20429;-74
2021/07/22 01:17:50;;;;;;;16.73;12.05;;;14.00;99.90;;;;;;5032110;28;20032;-75
2021/07/22 01:20:27;;;;;;;18.15;12.43;;;14.00;99.90;;;;;;5047410;28;20024;-74
2021/07/22 01:22:57;;;;;;;19.20;13.23;;;14.00;99.90;;;;;;5033234;28;20105;-74
2021/07/22 01:25:24;;;;;;;16.73;12.25;;;14.00;99.90;;;;;;5033793;28;20032;-75
2021/07/22 01:27:50;;;;;;;19.63;12.63;;;14.00;99.90;;;;;;5033165;28;20036;-75
2021/07/22 01:30:17;;;;;;;18.77;12.77;;;14.00;99.90;;;;;;5033349;28;20059;-75
2021/07/22 01:32:44;;;;;;;17.63;11.82;;;13.90;99.90;;;;;;5052437;28;20134;-75
2021/07/22 01:35:11;;;;;;;20.92;12.48;;;13.90;99.90;;;;;;5052887;28;20121;-75
2021/07/22 01:37:40;;;;;;;17.83;11.38;;;13.90;99.90;;;;;;5035067;28;20025;-75
2021/07/22 01:40:07;;;;;;;15.55;11.65;;;13.90;99.90;;;;;;5052999;28;20063;-75
2021/07/22 01:42:33;;;;;;;16.83;11.25;;;13.90;99.90;;;;;;5053091;28;20017;-75
2021/07/22 01:44:58;;;;;;;18.23;10.95;;;13.80;99.90;;;;;;5052865;28;20028;-75
2021/07/22 01:47:24;;;;;;;15.18;10.95;;;13.80;99.90;;;;;;5038401;28;20025;-75
2021/07/22 01:49:50;;;;;;;16.27;11.02;;;13.80;99.90;;;;;;5032997;28;20035;-75
2021/07/22 01:52:15;;;;;;;17.52;12.23;;;13.70;99.90;;;;;;5033191;28;20101;-74
2021/07/22 01:54:41;;;;;;;18.75;12.10;;;13.70;99.90;;;;;;5037310;28;20063;-74
2021/07/22 01:57:07;;;;;;;20.13;12.27;;;13.60;99.90;;;;;;5052427;28;20096;-80
2021/07/22 01:59:35;;;;;;;20.40;11.20;;;13.60;99.90;;;;;;5024805;28;20049;-80
2021/07/22 02:02:03;;;;;;;18.40;12.00;;;13.50;99.90;;;;;;5015658;28;20036;-80
2021/07/22 02:04:28;;;;;;;21.90;10.88;;;13.40;99.90;;;;;;5026437;28;20036;-80
2021/07/22 02:06:54;;;;;;;18.75;12.00;;;13.40;99.90;;;;;;5020399;28;20026;-80
2021/07/22 02:09:19;;;;;;;16.92;11.55;;;13.30;99.90;;;;;;5019113;28;20596;-80
2021/07/22 02:11:45;;;;;;;15.77;10.90;;;13.40;99.90;;;;;;5024617;28;20036;-79
2021/07/22 02:14:11;;;;;;;19.85;12.23;;;13.30;99.90;;;;;;5025464;28;20406;-79
2021/07/22 02:16:39;;;;;;;13.23;10.30;;;13.40;99.90;;;;;;5024975;28;20029;-80
2021/07/22 02:19:05;;;;;;;20.40;12.02;;;13.30;99.90;;;;;;5025713;28;20029;-80
2021/07/22 02:21:30;;;;;;;16.60;12.10;;;13.40;99.90;;;;;;5023989;28;20496;-80
2021/07/22 02:23:56;;;;;;;20.08;12.27;;;13.40;99.90;;;;;;5026399;28;20026;-80
2021/07/22 02:26:21;;;;;;;16.52;12.20;;;13.40;99.90;;;;;;5025999;28;20029;-80
2021/07/22 02:28:47;;;;;;;20.33;11.75;;;13.40;99.90;;;;;;5026485;28;20557;-80
2021/07/22 02:31:13;;;;;;;25.33;12.80;;;13.40;99.90;;;;;;5025787;28;20033;-80
2021/07/22 02:33:38;;;;;;;17.10;11.68;;;13.40;99.90;;;;;;5026044;28;20113;-80
2021/07/22 02:36:04;;;;;;;17.77;11.55;;;13.40;99.90;;;;;;5026611;28;20103;-81
2021/07/22 02:38:29;;;;;;;17.60;12.48;;;13.40;99.90;;;;;;5026559;28;20060;-80
2021/07/22 02:40:55;;;;;;;17.05;11.55;;;13.30;99.90;;;;;;5031552;28;20025;-80
2021/07/22 02:43:20;;;;;;;18.27;11.20;;;13.30;99.90;;;;;;5026618;28;20026;-81
2021/07/22 02:45:46;;;;;;;18.73;12.32;;;13.30;99.90;;;;;;5026677;28;20057;-81
2021/07/22 02:48:11;;;;;;;17.27;11.57;;;13.20;99.90;;;;;;5026494;28;20588;-81
2021/07/22 02:50:37;;;;;;;19.55;12.18;;;13.20;99.90;;;;;;5026452;28;20030;-80
2021/07/22 02:53:04;;;;;;;18.27;11.18;;;13.20;99.90;;;;;;5026061;28;20057;-80
2021/07/22 02:55:29;;;;;;;19.73;11.15;;;13.20;99.90;;;;;;5026747;28;20064;-80
2021/07/22 02:57:55;;;;;;;19.08;12.35;;;13.20;99.90;;;;;;5026506;28;20054;-80
2021/07/22 03:00:21;;;;;;;17.40;11.50;;;13.20;99.90;;;;;;5027022;28;20033;-81
2021/07/22 03:02:47;;;;;;;17.02;12.02;;;13.20;99.90;;;;;;5026717;28;20030;-80
2021/07/22 03:05:13;;;;;;;16.77;11.90;;;13.10;99.90;;;;;;5029099;28;20375;-80
2021/07/22 03:07:39;;;;;;;18.63;12.13;;;13.10;99.90;;;;;;5035383;28;20051;-81
2021/07/22 03:10:05;;;;;;;17.63;12.85;;;13.10;99.90;;;;;;5026397;28;20093;-81
2021/07/22 03:12:31;;;;;;;18.17;11.57;;;13.10;99.90;;;;;;5008331;28;20040;-81
2021/07/22 03:14:56;;;;;;;16.58;11.68;;;13.10;99.90;;;;;;5026210;28;20029;-80
2021/07/22 03:17:22;;;;;;;21.23;12.57;;;13.10;99.90;;;;;;5026044;28;20539;-80
2021/07/22 03:19:48;;;;;;;18.95;11.88;;;13.10;99.90;;;;;;5025977;28;20029;-81
2021/07/22 03:22:15;;;;;;;16.65;12.65;;;13.10;99.90;;;;;;5026518;28;20032;-80
2021/07/22 03:24:40;;;;;;;18.30;12.07;;;13.10;99.90;;;;;;5010628;28;20373;-80
2021/07/22 03:27:06;;;;;;;17.90;11.68;;;13.00;99.90;;;;;;5030379;28;20030;-81
2021/07/22 03:29:32;;;;;;;23.58;12.10;;;13.00;99.90;;;;;;5030694;28;20096;-81
2021/07/22 03:32:00;;;;;;;18.23;12.13;;;13.00;99.90;;;;;;5030095;28;20033;-80
2021/07/22 03:34:26;;;;;;;17.75;11.95;;;13.00;99.90;;;;;;5029668;28;20021;-80
2021/07/22 03:36:52;;;;;;;17.60;11.65;;;13.00;99.90;;;;;;5011640;28;20137;-80
2021/07/22 03:39:17;;;;;;;20.83;11.30;;;13.00;99.90;;;;;;5029543;28;20065;-80
2021/07/22 03:41:49;;;;;;;19.42;11.73;;;13.00;99.90;;;;;;5029220;28;20032;-80
2021/07/22 03:44:15;;;;;;;15.68;11.68;;;12.90;99.90;;;;;;5029493;28;20116;-80
2021/07/22 03:46:41;;;;;;;17.20;11.63;;;12.90;99.90;;;;;;5029572;28;20136;-81
2021/07/22 03:49:07;;;;;;;18.63;12.68;;;12.90;99.90;;;;;;5029646;28;20051;-80
2021/07/22 03:51:33;;;;;;;22.48;13.32;;;12.90;99.90;;;;;;5029516;28;20095;-80
2021/07/22 03:54:01;;;;;;;20.35;13.95;;;12.90;99.90;;;;;;5011731;28;20486;-80
2021/07/22 03:56:27;;;;;;;29.30;18.48;;;12.90;99.90;;;;;;5029263;28;20029;-81
2021/07/22 03:58:53;;;;;;;24.52;17.15;;;12.90;99.90;;;;;;5035447;28;20044;-80
2021/07/22 04:01:18;;;;;;;23.55;15.85;;;12.90;99.90;;;;;;5029248;28;20429;-80
2021/07/22 04:03:44;;;;;;;22.95;16.23;;;12.90;99.90;;;;;;5028612;28;20037;-80
2021/07/22 04:06:12;;;;;;;22.73;14.38;;;12.90;99.90;;;;;;5029083;28;20486;-80
2021/07/22 04:08:38;;;;;;;24.40;15.32;;;12.90;99.90;;;;;;5028717;28;20103;-80
2021/07/22 04:11:06;;;;;;;22.52;13.93;;;12.80;99.90;;;;;;5028780;28;20075;-80
2021/07/22 04:13:32;;;;;;;20.00;12.63;;;12.80;99.90;;;;;;5028776;28;20478;-80
2021/07/22 04:16:03;;;;;;;20.88;12.63;;;12.80;99.90;;;;;;5026810;28;20034;-80
2021/07/22 04:18:30;;;;;;;18.98;12.27;;;12.80;99.90;;;;;;5027457;28;20021;-80
2021/07/22 04:20:56;;;;;;;18.20;12.60;;;12.80;99.90;;;;;;5025166;28;20020;-80
2021/07/22 04:23:21;;;;;;;17.95;11.85;;;12.80;99.90;;;;;;5028012;28;20363;-79
2021/07/22 04:25:47;;;;;;;18.27;11.60;;;12.90;99.90;;;;;;5025384;28;20029;-80
2021/07/22 04:28:13;;;;;;;20.50;12.05;;;12.90;99.90;;;;;;5009959;28;20025;-80
2021/07/22 04:30:39;;;;;;;17.67;12.10;;;12.90;99.90;;;;;;5029366;28;20096;-80
2021/07/22 04:33:05;;;;;;;16.70;11.32;;;12.90;99.90;;;;;;5027533;28;20017;-80
2021/07/22 04:35:31;;;;;;;19.85;12.75;;;12.90;99.90;;;;;;5023836;28;20108;-80
2021/07/22 04:37:56;;;;;;;17.70;12.05;;;13.00;99.90;;;;;;5025001;28;20835;-80
2021/07/22 04:40:22;;;;;;;17.42;11.02;;;13.00;99.90;;;;;;5025922;28;20021;-80
2021/07/22 04:42:47;;;;;;;13.70;10.52;;;13.10;99.90;;;;;;5024833;28;20036;-80
2021/07/22 04:45:13;;;;;;;18.20;11.88;;;13.10;99.90;;;;;;5026686;28;20040;-80
2021/07/22 04:47:40;;;;;;;18.27;11.68;;;13.20;99.90;;;;;;5024784;28;20076;-80
2021/07/22 04:50:06;;;;;;;19.23;12.75;;;13.20;99.90;;;;;;5022866;28;20034;-80
2021/07/22 04:52:31;;;;;;;17.92;11.75;;;13.20;99.90;;;;;;5023719;28;20540;-80
2021/07/22 04:54:57;;;;;;;20.30;11.60;;;13.30;99.90;;;;;;5024363;28;20033;-80
2021/07/22 04:57:23;;;;;;;16.50;11.75;;;13.30;99.90;;;;;;5024516;28;20478;-80
2021/07/22 04:59:48;;;;;;;18.23;11.93;;;13.40;99.90;;;;;;5024928;28;20044;-80
2021/07/22 05:02:15;;;;;;;21.98;11.68;;;13.50;99.90;;;;;;5025077;28;20087;-80
2021/07/22 05:04:41;;;;;;;17.95;11.85;;;13.60;99.90;;;;;;5026180;28;20049;-80
2021/07/22 05:07:07;;;;;;;19.30;11.75;;;13.70;99.90;;;;;;5023961;28;20111;-80
2021/07/22 05:09:32;;;;;;;16.40;11.13;;;13.80;99.90;;;;;;5027133;28;20029;-80
2021/07/22 05:11:58;;;;;;;17.90;12.18;;;13.90;99.90;;;;;;5027812;28;20059;-76
2021/07/22 05:14:23;;;;;;;19.08;12.48;;;14.00;99.90;;;;;;5010105;28;20490;-76
2021/07/22 05:16:49;;;;;;;18.42;12.65;;;14.00;99.90;;;;;;5027756;28;20042;-81
2021/07/22 05:19:15;;;;;;;22.73;13.52;;;14.20;99.90;;;;;;5031823;28;20025;-83
2021/07/22 05:21:41;;;;;;;19.00;12.75;;;14.30;99.90;;;;;;5027201;28;20033;-81
2021/07/22 05:24:07;;;;;;;19.52;12.32;;;14.40;99.90;;;;;;5027210;28;20041;-75
2021/07/22 05:26:33;;;;;;;19.25;13.27;;;14.60;99.90;;;;;;5023748;28;20037;-81
2021/07/22 05:28:59;;;;;;;18.25;12.93;;;14.70;99.90;;;;;;5027842;28;20068;-81
2021/07/22 05:31:25;;;;;;;14.18;11.23;;;14.80;99.90;;;;;;5026448;28;20029;-81
2021/07/22 05:33:50;;;;;;;18.15;10.93;;;15.00;99.90;;;;;;5026754;28;20044;-81
2021/07/22 05:36:16;;;;;;;20.13;12.02;;;15.20;99.90;;;;;;5026855;28;20029;-81
2021/07/22 05:38:41;;;;;;;18.55;13.02;;;15.40;99.90;;;;;;5039862;28;20524;-81
2021/07/22 05:41:11;;;;;;;22.65;12.82;;;15.50;99.90;;;;;;5029460;28;20815;-82
2021/07/22 05:43:37;;;;;;;17.00;12.90;;;15.60;99.90;;;;;;5018155;28;20037;-82
2021/07/22 05:46:04;;;;;;;28.35;14.95;;;15.70;99.90;;;;;;5007610;28;20446;-75
2021/07/22 05:48:29;;;;;;;24.77;14.07;;;15.70;99.90;;;;;;5021016;28;20044;-75
2021/07/22 05:50:59;;;;;;;21.00;13.63;;;15.70;99.90;;;;;;5025153;28;20041;-75
2021/07/22 05:53:25;;;;;;;20.17;12.85;;;15.90;99.90;;;;;;5025117;28;21423;-75
2021/07/22 05:55:50;;;;;;;22.13;13.30;;;15.90;99.90;;;;;;5027024;28;20559;-75
2021/07/22 05:58:16;;;;;;;17.30;12.93;;;16.00;99.90;;;;;;5026980;28;20057;-76
2021/07/22 06:00:41;;;;;;;20.10;12.77;;;16.10;99.90;;;;;;5035343;28;20715;-82
2021/07/22 06:03:07;;;;;;;19.50;12.98;;;16.20;99.90;;;;;;5030497;28;20045;-75
2021/07/22 06:05:34;;;;;;;17.33;12.73;;;16.40;99.90;;;;;;5023533;28;20037;-82
2021/07/22 06:08:03;;;;;;;20.35;13.30;;;16.50;99.90;;;;;;5023104;28;20632;-78
2021/07/22 06:10:29;;;;;;;23.05;13.18;;;16.60;99.90;;;;;;5023527;28;20087;-77
2021/07/22 06:12:55;;;;;;;24.67;13.30;;;16.70;99.90;;;;;;5023196;28;20040;-77
2021/07/22 06:15:21;;;;;;;18.15;13.25;;;16.90;99.90;;;;;;5015637;28;20029;-77
2021/07/22 06:17:47;;;;;;;21.88;13.05;;;17.00;99.90;;;;;;5023313;28;20033;-77
2021/07/22 06:20:13;;;;;;;21.88;13.25;;;17.20;99.90;;;;;;5023172;28;20048;-79
2021/07/22 06:22:39;;;;;;;20.88;14.05;;;17.30;99.90;;;;;;5023558;28;20460;-79
2021/07/22 06:25:05;;;;;;;20.85;12.95;;;17.40;99.90;;;;;;5023599;28;20087;-79
2021/07/22 06:27:31;;;;;;;20.35;13.43;;;17.50;99.90;;;;;;5022908;28;20041;-79
2021/07/22 06:30:01;;;;;;;21.58;13.23;;;17.60;99.90;;;;;;5005262;28;20034;-79
2021/07/22 06:32:27;;;;;;;21.13;13.00;;;17.80;99.90;;;;;;5022852;28;20398;-79
2021/07/22 06:34:52;;;;;;;17.58;12.48;;;17.90;99.90;;;;;;5004925;28;20033;-78
2021/07/22 06:37:18;;;;;;;22.40;14.10;;;18.00;99.90;;;;;;5026098;28;20037;-79
2021/07/22 06:39:44;;;;;;;23.35;14.00;;;18.20;99.90;;;;;;5022681;28;20041;-79
2021/07/22 06:42:09;;;;;;;29.20;14.70;;;18.30;99.90;;;;;;5011818;28;20022;-72
2021/07/22 06:44:35;;;;;;;26.25;13.98;;;18.40;99.90;;;;;;5028057;28;20401;-78
2021/07/22 06:47:01;;;;;;;27.20;14.82;;;18.50;99.90;;;;;;5022975;28;20040;-77
2021/07/22 06:49:27;;;;;;;26.50;13.63;;;18.70;99.90;;;;;;5022630;28;20762;-78
2021/07/22 06:51:52;;;;;;;21.00;13.57;;;18.80;99.90;;;;;;5022881;28;20140;-78
2021/07/22 06:54:18;;;;;;;27.90;14.65;;;18.90;99.90;;;;;;5023087;28;20077;-78
2021/07/22 06:56:44;;;;;;;27.58;15.02;;;19.00;99.90;;;;;;5027519;28;20175;-78
2021/07/22 06:59:10;;;;;;;38.28;14.48;;;19.10;99.90;;;;;;5023955;28;20436;-78
2021/07/22 07:01:36;;;;;;;24.50;14.25;;;19.20;99.90;;;;;;5028765;28;20037;-78
2021/07/22 07:04:04;;;;;;;30.67;15.23;;;19.30;99.90;;;;;;5021031;28;20123;-78
2021/07/22 07:06:34;;;;;;;28.35;14.02;;;19.40;99.90;;;;;;5027985;28;20056;-78
2021/07/22 07:09:04;;;;;;;24.88;14.60;;;19.50;99.90;;;;;;5028220;28;20523;-74
2021/07/22 07:11:30;;;;;;;27.02;15.30;;;19.50;99.90;;;;;;5014201;28;20049;-72
2021/07/22 07:13:56;;;;;;;25.88;15.00;;;19.60;99.90;;;;;;5032272;28;20056;-74
2021/07/22 07:16:21;;;;;;;23.23;15.05;;;19.70;99.90;;;;;;5036259;28;20030;-74
2021/07/22 07:18:47;;;;;;;27.23;15.15;;;19.80;99.90;;;;;;5035770;28;20071;-72
2021/07/22 07:21:13;;;;;;;21.52;14.95;;;19.90;99.90;;;;;;5028948;28;20143;-79
2021/07/22 07:23:39;;;;;;;26.80;15.30;;;19.90;99.90;;;;;;5027496;28;20918;-79
2021/07/22 07:26:08;;;;;;;22.15;13.43;;;20.00;99.90;;;;;;5028335;28;20041;-79
2021/07/22 07:28:34;;;;;;;21.60;14.65;;;20.00;99.90;;;;;;5025873;28;20025;-79
2021/07/22 07:31:00;;;;;;;24.13;14.70;;;20.10;99.90;;;;;;5027204;28;20041;-79
2021/07/22 07:33:27;;;;;;;29.95;15.25;;;20.30;99.90;;;;;;5026577;28;20040;-79
2021/07/22 07:35:53;;;;;;;25.70;15.52;;;20.40;99.90;;;;;;5034067;28;20022;-72
2021/07/22 07:38:19;;;;;;;26.95;15.80;;;20.40;99.90;;;;;;5035496;28;20045;-72
2021/07/22 07:40:45;;;;;;;21.50;14.60;;;20.40;99.90;;;;;;5035664;28;20354;-72
2021/07/22 07:43:18;;;;;;;25.60;15.93;;;20.60;99.90;;;;;;5030563;28;20033;-79
2021/07/22 07:45:44;;;;;;;24.33;15.63;;;20.70;99.90;;;;;;5029922;28;20025;-72
2021/07/22 07:48:10;;;;;;;22.08;14.85;;;20.80;99.90;;;;;;5046557;28;20032;-78
2021/07/22 07:50:35;;;;;;;20.48;14.38;;;20.90;99.90;;;;;;5025454;28;20052;-78
2021/07/22 07:53:14;;;;;;;24.75;14.95;;;21.00;99.90;;;;;;5025954;28;20029;-78
2021/07/22 07:55:40;;;;;;;18.20;13.43;;;21.00;99.90;;;;;;5033408;28;20027;-72
2021/07/22 07:58:07;;;;;;;24.45;14.75;;;21.10;99.90;;;;;;5027921;28;20132;-78
2021/07/22 08:00:33;;;;;;;25.88;14.02;;;21.20;99.90;;;;;;5032179;28;20091;-74
2021/07/22 08:02:59;;;;;;;24.10;14.65;;;21.20;99.90;;;;;;5032534;28;20041;-77
2021/07/22 08:05:28;;;;;;;23.75;14.73;;;21.30;99.90;;;;;;5028124;28;20398;-78
2021/07/22 08:07:54;;;;;;;22.67;15.13;;;21.40;99.90;;;;;;5009877;28;20037;-79
2021/07/22 08:10:20;;;;;;;24.90;14.60;;;21.40;99.90;;;;;;5028064;28;20022;-73
2021/07/22 08:12:47;;;;;;;21.48;14.07;;;21.50;99.90;;;;;;5030198;28;20033;-79
2021/07/22 08:15:13;;;;;;;22.83;14.57;;;21.60;99.90;;;;;;5023648;28;20029;-79
2021/07/22 08:17:41;;;;;;;20.95;13.27;;;21.80;99.90;;;;;;5032706;28;20082;-75
2021/07/22 08:20:09;;;;;;;28.92;15.55;;;21.80;99.90;;;;;;5034915;28;20021;-72
2021/07/22 08:22:38;;;;;;;19.92;14.23;;;21.90;99.90;;;;;;5029574;28;20442;-79
2021/07/22 08:25:05;;;;;;;22.67;15.27;;;21.90;99.90;;;;;;5028348;28;20141;-79
2021/07/22 08:27:35;;;;;;;22.08;14.38;;;21.90;99.90;;;;;;5033801;28;20052;-74
2021/07/22 08:30:01;;;;;;;18.27;13.18;;;21.90;99.90;;;;;;5035178;28;20025;-75
2021/07/22 08:32:27;;;;;;;20.33;13.20;;;22.00;99.90;;;;;;5026785;28;20033;-78
2021/07/22 08:34:53;;;;;;;20.30;14.35;;;22.00;99.90;;;;;;5012804;28;20054;-78
2021/07/22 08:37:18;;;;;;;22.00;13.32;;;22.20;99.90;;;;;;5026209;28;20380;-77
2021/07/22 08:39:51;;;;;;;19.73;14.25;;;22.30;99.90;;;;;;5027550;28;20025;-78
2021/07/22 08:42:17;;;;;;;23.88;13.80;;;22.40;99.90;;;;;;5014235;28;20033;-72
2021/07/22 08:44:43;;;;;;;21.75;14.13;;;22.50;99.90;;;;;;5013846;28;20026;-72
2021/07/22 08:47:10;;;;;;;22.33;14.45;;;22.60;99.90;;;;;;4997057;28;20030;-72
2021/07/22 08:49:37;;;;;;;18.83;13.93;;;22.60;99.90;;;;;;5014583;28;20104;-72
2021/07/22 08:52:11;;;;;;;22.63;13.43;;;22.60;99.90;;;;;;5014400;28;20130;-72
2021/07/22 08:54:39;;;;;;;23.83;15.15;;;22.60;99.90;;;;;;5013855;28;20454;-72
2021/07/22 08:57:10;;;;;;;23.30;14.07;;;22.60;99.90;;;;;;5014105;28;20030;-72
2021/07/22 08:59:36;;;;;;;19.77;13.57;;;22.70;99.90;;;;;;5014827;28;20046;-72
2021/07/22 09:02:04;;;;;;;20.00;13.73;;;22.80;99.90;;;;;;5014392;28;20026;-72
2021/07/22 09:04:30;;;;;;;20.88;13.85;;;22.80;99.90;;;;;;5014048;28;20030;-72
2021/07/22 09:06:57;;;;;;;18.95;13.65;;;22.90;99.90;;;;;;5032680;28;20502;-73
2021/07/22 09:09:23;;;;;;;21.95;12.95;;;23.00;99.90;;;;;;5053758;28;20025;-72
2021/07/22 09:11:53;;;;;;;17.10;12.85;;;23.10;99.90;;;;;;5054095;28;20045;-73
2021/07/22 09:14:19;;;;;;;22.33;12.45;;;23.20;99.90;;;;;;5053639;28;20418;-72
2021/07/22 09:16:44;;;;;;;18.00;11.88;;;23.20;99.90;;;;;;5053903;28;20207;-72
2021/07/22 09:19:35;;;;;;;16.77;10.98;;;23.30;99.90;;;;;;5053828;28;20017;-72
2021/07/22 09:22:01;;;;;;;17.88;11.60;;;23.30;99.90;;;;;;5025400;28;20025;-72
2021/07/22 09:24:27;;;;;;;16.00;10.68;;;23.50;99.90;;;;;;5029314;28;20048;-79
2021/07/22 09:26:53;;;;;;;19.80;11.27;;;23.40;99.90;;;;;;5009914;28;20045;-79
2021/07/22 09:29:19;;;;;;;19.08;11.25;;;23.60;99.90;;;;;;5009404;28;20080;-79
2021/07/22 09:31:45;;;;;;;16.48;10.20;;;23.70;99.90;;;;;;4992526;28;20052;-79
2021/07/22 09:34:24;;;;;;;14.98;10.35;;;23.80;99.90;;;;;;5024317;28;20512;-79
2021/07/22 09:36:50;;;;;;;16.75;10.30;;;23.80;99.90;;;;;;5016559;28;20378;-73
2021/07/22 09:39:16;;;;;;;14.60;10.13;;;23.80;99.90;;;;;;5035604;28;20029;-73
2021/07/22 09:41:42;;;;;;;11.25;9.00;;;23.90;99.90;;;;;;5053099;28;20017;-73
2021/07/22 09:44:27;;;;;;;17.88;10.32;;;24.00;99.90;;;;;;5035622;28;20507;-73
2021/07/22 09:46:53;;;;;;;16.27;10.43;;;24.20;99.90;;;;;;5053444;28;20116;-73
2021/07/22 09:49:18;;;;;;;12.55;9.55;;;24.40;99.90;;;;;;5035272;28;20481;-72
2021/07/22 09:51:44;;;;;;;14.48;9.88;;;24.40;99.90;;;;;;5053329;28;20513;-73
2021/07/22 09:54:12;;;;;;;13.00;10.15;;;24.60;99.90;;;;;;5052996;28;20466;-73
2021/07/22 09:56:39;;;;;;;13.05;10.05;;;24.70;99.90;;;;;;5053593;28;20025;-73
2021/07/22 09:59:08;;;;;;;14.02;9.75;;;24.70;99.90;;;;;;5031576;28;20077;-79
2021/07/22 10:01:47;;;;;;;12.48;9.50;;;24.90;99.90;;;;;;5050813;22;20132;-75
2021/07/22 10:04:14;;;;;;;14.27;9.40;;;25.10;99.90;;;;;;5046136;28;20029;-78
2021/07/22 10:06:44;;;;;;;16.30;9.90;;;25.50;99.90;;;;;;5045303;28;20032;-78
2021/07/22 10:09:11;;;;;;;13.75;9.60;;;25.50;99.90;;;;;;5038047;28;20377;-78
2021/07/22 10:11:36;;;;;;;15.18;10.98;;;25.60;99.90;;;;;;5034744;28;20143;-75
2021/07/22 10:14:03;;;;;;;12.43;9.23;;;25.80;99.90;;;;;;5048944;28;20118;-75
2021/07/22 10:16:30;;;;;;;17.33;11.10;;;26.00;99.90;;;;;;5046000;28;20017;-75
2021/07/22 10:18:58;;;;;;;17.05;10.55;;;26.10;99.90;;;;;;5043063;28;20112;-75
2021/07/22 10:21:26;;;;;;;16.52;10.13;;;26.40;99.90;;;;;;5040815;28;20477;-74
2021/07/22 10:23:53;;;;;;;19.52;10.90;;;26.50;99.90;;;;;;5042236;28;20025;-75
2021/07/22 10:26:21;;;;;;;16.20;10.05;;;26.50;99.90;;;;;;5041330;28;20564;-75
2021/07/22 10:28:48;;;;;;;14.05;9.13;;;26.60;99.90;;;;;;5042961;28;20479;-75
2021/07/22 10:31:15;;;;;;;14.00;9.57;;;26.70;99.90;;;;;;5022942;28;20082;-75
2021/07/22 10:33:43;;;;;;;11.63;9.38;;;27.10;99.90;;;;;;5043024;28;20025;-75
2021/07/22 10:36:09;;;;;;;12.85;9.50;;;27.10;99.90;;;;;;5045844;28;20059;-81
2021/07/22 10:38:48;;;;;;;14.88;9.75;;;27.00;99.90;;;;;;5044636;28;20031;-76
2021/07/22 10:41:37;;;;;;;15.15;9.48;;;27.10;99.90;;;;;;5053513;28;20204;-75
2021/07/22 10:44:31;;;;;;;11.70;9.73;;;27.20;99.90;;;;;;5045879;28;20025;-80
2021/07/22 10:46:59;;;;;;;12.50;9.75;;;27.20;99.90;;;;;;5041791;28;20083;-81
2021/07/22 10:49:43;;;;;;;12.90;9.82;;;27.50;99.90;;;;;;5046170;28;20032;-79
2021/07/22 10:52:12;;;;;;;12.57;10.35;;;27.50;99.90;;;;;;5069183;28;20039;-74
2021/07/22 10:54:40;;;;;;;14.95;9.32;;;27.40;99.10;;;;;;5076433;28;20142;-74
2021/07/22 10:57:07;;;;;;;13.18;10.18;;;27.30;99.40;;;;;;5057166;28;20355;-76
2021/07/22 10:59:59;;;;;;;11.95;9.43;;;27.30;99.90;;;;;;5056525;28;20058;-76
2021/07/22 11:02:40;;;;;;;14.55;10.20;;;27.40;99.40;;;;;;5052434;28;20045;-76
2021/07/22 11:05:07;;;;;;;15.30;9.30;;;27.30;99.90;;;;;;5056620;28;20071;-76
2021/07/22 11:07:33;;;;;;;15.98;10.43;;;27.20;99.90;;;;;;5054926;28;20031;-74
2021/07/22 11:09:58;;;;;;;12.93;10.02;;;27.50;99.90;;;;;;5038450;28;20029;-74
2021/07/22 11:12:39;;;;;;;12.55;9.45;;;27.70;99.90;;;;;;5038410;28;20017;-74
2021/07/22 11:15:06;;;;;;;14.27;10.30;;;27.90;99.20;;;;;;5055926;28;20099;-74
2021/07/22 11:17:33;;;;;;;12.50;9.15;;;28.00;99.90;;;;;;5056118;28;20029;-74
2021/07/22 11:20:17;;;;;;;13.18;10.20;;;27.80;99.90;;;;;;5037931;28;20071;-74
2021/07/22 11:22:45;;;;;;;14.02;9.90;;;28.10;99.90;;;;;;5056146;28;20021;-74
2021/07/22 11:25:11;;;;;;;13.48;9.88;;;28.10;97.20;;;;;;5056041;28;20466;-74
2021/07/22 11:27:49;;;;;;;12.40;9.80;;;28.10;97.90;;;;;;5056031;28;20099;-74
2021/07/22 11:30:20;;;;;;;12.88;9.60;;;28.10;96.40;;;;;;5037662;28;20033;-81
2021/07/22 11:32:46;;;;;;;13.13;9.38;;;28.30;99.00;;;;;;5027230;28;20497;-81
2021/07/22 11:35:12;;;;;;;11.55;9.70;;;28.30;97.00;;;;;;5026096;28;20033;-81
2021/07/22 11:37:39;;;;;;;11.52;9.30;;;28.50;98.10;;;;;;5026480;28;20021;-81
2021/07/22 11:40:11;;;;;;;13.38;9.95;;;28.70;95.40;;;;;;5026112;28;20541;-81
2021/07/22 11:42:50;;;;;;;13.43;10.13;;;28.70;95.10;;;;;;5026173;28;20842;-81
2021/07/22 11:45:16;;;;;;;12.35;8.65;;;28.60;96.50;;;;;;5031013;28;20033;-81
2021/07/22 11:47:42;;;;;;;14.65;10.00;;;28.50;98.80;;;;;;5023939;28;20443;-81
2021/07/22 11:50:09;;;;;;;15.35;9.90;;;28.50;98.20;;;;;;5040022;28;20048;-81
2021/07/22 11:52:35;;;;;;;13.35;9.80;;;28.50;97.10;;;;;;5042486;28;20037;-81
2021/07/22 11:55:12;;;;;;;11.32;8.98;;;28.70;95.10;;;;;;5038401;28;20068;-81
2021/07/22 11:57:41;;;;;;;12.32;9.90;;;28.80;97.50;;;;;;5038878;28;20025;-81
2021/07/22 12:00:21;;;;;;;11.25;8.75;;;28.80;96.10;;;;;;5038476;28;20021;-81
2021/07/22 12:02:53;;;;;;;13.38;8.80;;;28.90;96.90;;;;;;5017507;28;20478;-81
2021/07/22 12:05:26;;;;;;;16.63;9.73;;;28.90;93.10;;;;;;5017785;28;20033;-81
2021/07/22 12:07:53;;;;;;;13.05;9.13;;;29.00;95.50;;;;;;5014487;28;20025;-81
2021/07/22 12:10:30;;;;;;;13.00;9.10;;;29.10;94.40;;;;;;5005839;28;20357;-81
2021/07/22 12:12:57;;;;;;;12.80;8.23;;;29.00;94.10;;;;;;5006082;28;20029;-81
2021/07/22 12:15:22;;;;;;;16.55;10.07;;;29.10;95.60;;;;;;5022244;28;20048;-81
2021/07/22 12:17:48;;;;;;;13.55;9.63;;;29.00;93.70;;;;;;5005574;28;20371;-81
2021/07/22 12:20:15;;;;;;;13.48;10.85;;;28.80;96.10;;;;;;5005468;28;20022;-81
2021/07/22 12:22:42;;;;;;;16.90;11.13;;;28.60;93.70;;;;;;5013463;28;20030;-74
2021/07/22 12:25:12;;;;;;;15.18;9.23;;;28.60;94.50;;;;;;5015060;28;20109;-75
2021/07/22 12:27:42;;;;;;;12.30;9.05;;;28.70;94.50;;;;;;5013785;28;20018;-76
2021/07/22 12:30:13;;;;;;;13.00;8.98;;;28.90;93.30;;;;;;5014862;28;20120;-76